Flight Track Log - Related Links

Times and Time Zones

All times are in EDT time to prevent confusion due to time zone crossing. See the AAL963 flight status page for this flight to view local times or setup timezone preferences in your user account.

Time Position Orientation Groundspeed Altitude Reporting Facility
EDT Latitude Longitude Course Direction KTS MPH feet Rate Location/Type
Thu 09:43:30 PM 32.8520 -97.0250 167° South 182 209 2,200  Level FlightAware ADS-B
Thu 09:43:55 PM 32.8300 -97.0180 165° South 218 251 2,300 750 Climbing FlightAware ADS-B
Thu 09:44:18 PM 32.8050 -97.0090 163° South 234 269 2,800 1,393 Climbing FlightAware ADS-B
Thu 09:44:51 PM 32.7690 -96.9960 163° South 252 290 3,600 1,729 Climbing FlightAware ADS-B
Thu 09:45:17 PM 32.7400 -96.9850 162° South 254 292 4,500 2,000 Climbing FlightAware ADS-B
Thu 09:46:03 PM 32.6950 -96.9680 162° South 256 295 6,000 2,000 Climbing FlightAware ADS-B
Thu 09:46:35 PM 32.6510 -96.9510 162° South 265 305 7,100 1,839 Climbing FlightAware ADS-B
Thu 09:47:05 PM 32.6150 -96.9380 163° South 278 320 7,900 1,964 Climbing FlightAware ADS-B
Thu 09:47:30 PM 32.5830 -96.9260 162° South 276 318 8,900 1,925 Climbing FlightAware ADS-B
Thu 09:47:58 PM 32.5480 -96.9140 164° South 286 329 9,600 1,352 Climbing FlightAware ADS-B
Thu 09:48:41 PM 32.4930 -96.8930 162° South 306 352 10,500 1,059 Climbing FlightAware ADS-B
Thu 09:49:23 PM 32.4330 -96.8710 163° South 339 390 11,100 907 Climbing FlightAware ADS-B
Thu 09:50:07 PM 32.3640 -96.8450 162° South 369 425 11,800 1,171 Climbing FlightAware ADS-B
Thu 09:50:45 PM 32.3000 -96.8210 162° South 383 441 12,700 1,537 Climbing FlightAware ADS-B
Thu 09:51:29 PM 32.2240 -96.7920 162° South 393 452 13,900 1,624 Climbing FlightAware ADS-B
Thu 09:52:10 PM 32.1570 -96.7670 162° South 402 463 15,000 1,671 Climbing FlightAware ADS-B
Thu 09:52:48 PM 32.0844 -96.7390 162° South 409 471 16,100 1,714 Climbing FlightAware ADS-B
Thu 09:53:20 PM 32.0259 -96.7171 162° South 413 475 17,000 1,645 Climbing FlightAware ADS-B
Thu 09:53:50 PM 31.9695 -96.6958 162° South 419 482 17,800 1,569 Climbing FlightAware ADS-B
Thu 09:54:25 PM 31.9044 -96.6710 162° South 424 488 18,700 1,524 Climbing FlightAware ADS-B
Thu 09:54:53 PM 31.8533 -96.6513 162° South 430 495 19,400 1,448 Climbing FlightAware ADS-B
Thu 09:55:23 PM 31.7951 -96.6271 161° South 436 502 20,100 1,364 Climbing FlightAware ADS-B
Thu 09:55:59 PM 31.7270 -96.5988 161° South 443 510 20,900 1,352 Climbing FlightAware ADS-B
Thu 09:56:34 PM 31.6577 -96.5705 161° South 450 518 21,700 1,259 Climbing FlightAware ADS-B
Thu 09:58:41 PM 31.4010 -96.4697 163° South 472 543 24,300 1,261 Climbing FlightAware ADS-B
Thu 09:59:11 PM 31.3383 -96.4466 163° South 472 543 25,000 1,300 Climbing FlightAware ADS-B
Thu 09:59:41 PM 31.2745 -96.4229 162° South 475 547 25,600 1,180 Climbing FlightAware ADS-B
Thu 10:00:12 PM 31.2101 -96.3988 162° South 477 549 26,200 1,219 Climbing FlightAware ADS-B
Thu 10:00:45 PM 31.1412 -96.3730 162° South 477 549 26,900 1,143 Climbing FlightAware ADS-B
Thu 10:01:15 PM 31.0773 -96.3495 163° South 479 551 27,400 841 Climbing FlightAware ADS-B
Thu 10:02:32 PM 30.9122 -96.2886 162° South 489 563 28,400 815 Climbing FlightAware ADS-B
Thu 10:02:36 PM 30.9032 -96.2844 158° South 490 564 28,500 1,043 Climbing FlightAware ADS-B
Thu 10:02:55 PM 30.8664 -96.2594 147° Southeast 491 565 28,800 968 Climbing FlightAware ADS-B
Thu 10:03:07 PM 30.8452 -96.2379 139° Southeast 491 565 29,000 750 Climbing FlightAware ADS-B
Thu 10:03:11 PM 30.8392 -96.2306 134° Southeast 493 567 29,000 750 Level FlightAware ADS-B
Thu 10:03:23 PM 30.8224 -96.2052 128° Southeast 494 568 29,200 761 Climbing FlightAware ADS-B
Thu 10:05:25 PM 30.6790 -95.9251 121° Southeast 504 580 30,700 758 Climbing FlightAware ADS-B
Thu 10:06:25 PM 30.6069 -95.7845 121° Southeast 506 582 31,500 867 Climbing FlightAware ADS-B
Thu 10:06:55 PM 30.5708 -95.7146 121° Southeast 507 583 32,000 848 Climbing FlightAware ADS-B
Thu 10:07:57 PM 30.4967 -95.5716 121° Southeast 506 582 32,800 783 Climbing FlightAware ADS-B
Thu 10:08:27 PM 30.4602 -95.5015 121° Southeast 506 582 33,200 800 Climbing FlightAware ADS-B
Thu 10:08:57 PM 30.4239 -95.4316 121° Southeast 504 580 33,600 574 Climbing FlightAware ADS-B
Thu 10:11:35 PM 30.2339 -95.0678 121° Southeast 501 577 35,000 447 Climbing FlightAware ADS-B
Thu 10:12:05 PM 30.1977 -94.9986 121° Southeast 500 575 35,000  Level FlightAware ADS-B
Thu 10:12:35 PM 30.1618 -94.9303 121° Southeast 499 574 35,000  Level FlightAware ADS-B
Thu 10:13:06 PM 30.1253 -94.8610 121° Southeast 499 574 35,000  Level FlightAware ADS-B
Thu 10:13:36 PM 30.0891 -94.7925 121° Southeast 499 574 35,000  Level FlightAware ADS-B
Thu 10:14:37 PM 30.0160 -94.6543 121° Southeast 499 574 35,000  Level FlightAware ADS-B
Thu 10:15:08 PM 29.9792 -94.5850 121° Southeast 499 574 35,000  Level FlightAware ADS-B
Thu 10:17:10 PM 29.8318 -94.3083 122° Southeast 499 574 35,000  Level FlightAware ADS-B
Thu 10:18:11 PM 29.7578 -94.1703 122° Southeast 499 574 35,000  Level FlightAware ADS-B
Thu 10:18:42 PM 29.7203 -94.1002 122° Southeast 500 575 35,000  Level FlightAware ADS-B
Thu 10:18:56 PM 29.7026 -94.0701 124° Southeast 499 574 35,000  Level FlightAware ADS-B
Thu 10:19:11 PM 29.6800 -94.0393 130° Southeast 500 575 35,000  Level FlightAware ADS-B
Thu 10:19:30 PM 29.6479 -94.0049 137° Southeast 500 575 35,000  Level FlightAware ADS-B
Thu 10:20:00 PM 29.5924 -93.9568 143° Southeast 500 575 35,000  Level FlightAware ADS-B
Thu 10:20:31 PM 29.5355 -93.9082 143° Southeast 499 574 35,000  Level FlightAware ADS-B
Thu 10:21:04 PM 29.4738 -93.8558 144° Southeast 498 573 35,000  Level FlightAware ADS-B
Thu 10:21:34 PM 29.4182 -93.8086 144° Southeast 497 572 35,000  Level FlightAware ADS-B
Thu 10:22:05 PM 29.3607 -93.7596 143° Southeast 494 568 35,000  Level FlightAware ADS-B
Thu 10:22:38 PM 29.3015 -93.7092 143° Southeast 494 568 35,000  Level FlightAware ADS-B
Thu 10:23:08 PM 29.2460 -93.6621 143° Southeast 492 566 35,000  Level FlightAware ADS-B
Thu 10:23:38 PM 29.1904 -93.6148 143° Southeast 490 564 35,000  Level FlightAware ADS-B
Thu 10:24:09 PM 29.1337 -93.5668 144° Southeast 490 564 35,000  Level FlightAware ADS-B
Thu 10:24:40 PM 29.0783 -93.5201 144° Southeast 488 562 35,000  Level FlightAware ADS-B
Thu 10:25:11 PM 29.0224 -93.4729 144° Southeast 487 560 35,000  Level FlightAware ADS-B
Thu 10:25:43 PM 28.9635 -93.4232 144° Southeast 487 560 35,000  Level FlightAware ADS-B
Thu 10:26:15 PM 28.9057 -93.3745 144° Southeast 487 560 35,000  Level FlightAware ADS-B
Thu 10:26:45 PM 28.8767 -93.3494 144° Southeast 484 557 35,000 -66 Level Houston Center
Thu 10:27:46 PM 28.7464 -93.2403 144° Southeast 485 558 34,900  Descending Houston Center
Thu 10:28:47 PM 28.6372 -93.1489 144° Southeast 486 559 35,000  Climbing Houston Center
Thu 10:29:49 PM 28.5283 -93.0564 143° Southeast 489 563 34,900  Descending Houston Center
Thu 10:30:50 PM 28.4194 -92.9656 144° Southeast 487 560 35,000  Climbing Houston Center
Thu 10:31:51 PM 28.3092 -92.8742 144° Southeast 491 565 34,900  Descending Houston Center
Thu 10:32:52 PM 28.1994 -92.7839 144° Southeast 487 560 35,000 15 Climbing Houston Center
Thu 10:38:39 PM 27.5423 -92.2465 144° Southeast 494 568 35,000 -14 Level FlightAware ADS-B
Thu 10:40:00 PM 27.4017 -92.1319 144° Southeast 493 567 34,900 -42 Descending Houston Center
Thu 10:41:01 PM 27.2897 -92.0431 145° Southeast 492 566 34,900 49 Level Houston Center
Thu 10:42:02 PM 27.1778 -91.9553 145° Southeast 492 566 35,000 Climbing Houston Center
Thu 10:44:00 PM 26.9656 -91.7722 144° Southeast  Level FlightAware Approximate
Thu 10:51:00 PM 26.1887 -91.1562 145° Southeast  Level FlightAware Approximate
Thu 10:52:00 PM 26.0776 -91.0688 145° Southeast  Level FlightAware Approximate
Thu 10:53:00 PM 25.9664 -90.9816 145° Southeast  Level FlightAware Approximate
Thu 10:54:00 PM 25.8551 -90.8945 145° Southeast  Level FlightAware Approximate
Thu 10:55:00 PM 25.7438 -90.8076 145° Southeast  Level FlightAware Approximate
Thu 10:56:00 PM 25.6325 -90.7209 145° Southeast  Level FlightAware Approximate
Thu 10:57:00 PM 25.5210 -90.6343 145° Southeast  Level FlightAware Approximate
Thu 10:58:00 PM 25.4096 -90.5479 145° Southeast  Level FlightAware Approximate
Thu 10:59:00 PM 25.2981 -90.4616 145° Southeast  Level FlightAware Approximate
Thu 11:00:00 PM 25.1865 -90.3755 145° Southeast  Level FlightAware Approximate
Thu 11:01:00 PM 25.0749 -90.2896 145° Southeast  Level FlightAware Approximate
Thu 11:02:00 PM 24.9632 -90.2038 145° Southeast  Level FlightAware Approximate
Thu 11:03:00 PM 24.8515 -90.1182 145° Southeast  Level FlightAware Approximate
Thu 11:04:00 PM 24.7398 -90.0327 145° Southeast  Level FlightAware Approximate
Thu 11:05:00 PM 24.6280 -89.9474 145° Southeast  Level FlightAware Approximate
Thu 11:06:00 PM 24.5161 -89.8623 145° Southeast  Level FlightAware Approximate
Thu 11:07:00 PM 24.4162 -89.7611 136° Southeast  Level FlightAware Approximate
Thu 11:08:00 PM 24.3189 -89.6567 136° Southeast  Level FlightAware Approximate
Thu 11:09:00 PM 24.2216 -89.5524 136° Southeast  Level FlightAware Approximate
Thu 11:10:00 PM 24.1241 -89.4483 136° Southeast  Level FlightAware Approximate
Thu 11:11:00 PM 24.0266 -89.3444 136° Southeast  Level FlightAware Approximate
Thu 11:12:00 PM 23.9291 -89.2406 136° Southeast  Level FlightAware Approximate
Thu 11:13:00 PM 23.8315 -89.1369 136° Southeast  Level FlightAware Approximate
Thu 11:14:00 PM 23.7338 -89.0335 136° Southeast  Level FlightAware Approximate
Thu 11:15:00 PM 23.6360 -88.9301 136° Southeast  Level FlightAware Approximate
Thu 11:15:46 PM 23.2250 -88.8930 136° Southeast 530 610 35,000  Level FlightAware ADS-B
Thu 11:16:00 PM 23.5382 -88.8270 136° Southeast  Level FlightAware Approximate
Thu 11:16:47 PM 23.0990 -88.8000 146° Southeast 530 610 35,000  Level FlightAware ADS-B
Thu 11:17:26 PM 23.0230 -88.7430 145° Southeast 530 610 35,000  Level FlightAware ADS-B
Thu 11:18:09 PM 22.9360 -88.6790 146° Southeast 530 610 35,000  Level FlightAware ADS-B
Thu 11:18:51 PM 22.8480 -88.6140 146° Southeast 531 611 35,000  Level FlightAware ADS-B
Thu 11:19:33 PM 22.7630 -88.5510 146° Southeast 532 612 35,000  Level FlightAware ADS-B
Thu 11:20:16 PM 22.6810 -88.4900 146° Southeast 533 613 35,000  Level FlightAware ADS-B
Thu 11:20:55 PM 22.6070 -88.4340 145° Southeast 534 615 35,000  Level FlightAware ADS-B
Thu 11:21:39 PM 22.5170 -88.3480 139° Southeast 535 616 35,000  Level FlightAware ADS-B
Thu 11:22:23 PM 22.4390 -88.2690 137° Southeast 537 618 35,000  Level FlightAware ADS-B
Thu 11:23:14 PM 22.3490 -88.1760 136° Southeast 537 618 35,000  Level FlightAware ADS-B
Thu 11:24:02 PM 22.2700 -88.0960 137° Southeast 537 618 35,000  Level FlightAware ADS-B
Thu 11:24:38 PM 22.1950 -88.0210 137° Southeast 536 617 35,000  Level FlightAware ADS-B
Thu 11:25:49 PM 22.0870 -87.9110 137° Southeast 534 615 35,000  Level FlightAware ADS-B
Thu 11:26:33 PM 22.0060 -87.8300 137° Southeast 533 613 35,000  Level FlightAware ADS-B
Thu 11:27:12 PM 21.9230 -87.7470 137° Southeast 533 613 35,000  Level FlightAware ADS-B
Thu 11:28:10 PM 21.8180 -87.6410 137° Southeast 532 612 35,000  Level FlightAware ADS-B
Thu 11:28:47 PM 21.7500 -87.5740 138° Southeast 532 612 35,000  Level FlightAware ADS-B
Thu 11:29:33 PM 21.6670 -87.4920 137° Southeast 531 611 35,000  Level FlightAware ADS-B
Thu 11:30:15 PM 21.5930 -87.4190 137° Southeast 530 610 35,000  Level FlightAware ADS-B
Thu 11:31:00 PM 21.4890 -87.3150 137° Southeast 529 609 35,000  Level FlightAware ADS-B
Thu 11:31:40 PM 21.4170 -87.2440 137° Southeast 530 610 35,000  Level FlightAware ADS-B
Thu 11:32:26 PM 21.3330 -87.1610 137° Southeast 529 609 35,000  Level FlightAware ADS-B
Thu 11:33:06 PM 21.2610 -87.0910 138° Southeast 529 609 35,000  Level FlightAware ADS-B
Thu 11:33:47 PM 21.1870 -87.0180 137° Southeast 529 609 35,000  Level FlightAware ADS-B
Thu 11:34:30 PM 21.1100 -86.9420 137° Southeast 530 610 35,000  Level FlightAware ADS-B
Thu 11:35:35 PM 20.9930 -86.8270 137° Southeast 528 608 35,000  Level FlightAware ADS-B
Thu 11:36:20 PM 20.9100 -86.7470 138° Southeast 528 608 35,000  Level FlightAware ADS-B
Thu 11:37:00 PM 20.8380 -86.6770 138° Southeast 528 608 35,000  Level FlightAware ADS-B
Thu 11:37:38 PM 20.7690 -86.6100 138° Southeast 526 605 35,000  Level FlightAware ADS-B
Thu 11:38:22 PM 20.6900 -86.5340 138° Southeast 527 606 35,000  Level FlightAware ADS-B
Thu 11:39:06 PM 20.6120 -86.4580 138° Southeast 526 605 35,000  Level FlightAware ADS-B
Thu 11:39:42 PM 20.5470 -86.3950 138° Southeast 526 605 35,000  Level FlightAware ADS-B
Thu 11:40:26 PM 20.4720 -86.3230 138° Southeast 525 604 35,000  Level FlightAware ADS-B
Thu 11:41:11 PM 20.3850 -86.2400 138° Southeast 525 604 35,000  Level FlightAware ADS-B
Thu 11:42:00 PM 20.2970 -86.1550 138° Southeast 525 604 35,000  Level FlightAware ADS-B
Thu 11:42:51 PM 20.2050 -86.0660 138° Southeast 527 606 35,000  Level FlightAware ADS-B
Thu 11:43:33 PM 20.1270 -85.9920 138° Southeast 528 608 35,000  Level FlightAware ADS-B
Thu 11:44:13 PM 20.0540 -85.9220 138° Southeast 529 609 35,000  Level FlightAware ADS-B
Thu 11:44:53 PM 19.9820 -85.8540 138° Southeast 530 610 35,000  Level FlightAware ADS-B
Thu 11:45:38 PM 19.9000 -85.7770 139° Southeast 530 610 35,000  Level FlightAware ADS-B
Thu 11:46:19 PM 19.8230 -85.7040 138° Southeast 531 611 35,000  Level FlightAware ADS-B
Thu 11:47:01 PM 19.7500 -85.6350 138° Southeast 531 611 35,000  Level FlightAware ADS-B
Thu 11:47:40 PM 19.6770 -85.5660 138° Southeast 532 612 35,000  Level FlightAware ADS-B
Thu 11:48:20 PM 19.6150 -85.5070 138° Southeast 532 612 35,000  Level FlightAware ADS-B
Thu 11:49:07 PM 19.5130 -85.4120 139° Southeast 531 611 35,000  Level FlightAware ADS-B
Thu 11:49:51 PM 19.4320 -85.3370 139° Southeast 530 610 35,000  Level FlightAware ADS-B
Thu 11:50:45 PM 19.3340 -85.2450 138° Southeast 529 609 35,000  Level FlightAware ADS-B
Thu 11:51:39 PM 19.2430 -85.1590 138° Southeast 529 609 35,000  Level FlightAware ADS-B
Thu 11:52:27 PM 19.1690 -85.0880 138° Southeast 529 609 35,000  Level FlightAware ADS-B
Thu 11:53:05 PM 19.1100 -85.0320 138° Southeast 529 609 35,000  Level FlightAware ADS-B
Thu 11:53:46 PM 19.0190 -84.9510 140° Southeast 527 606 35,000  Level FlightAware ADS-B
Thu 11:54:25 PM 18.9590 -84.8940 138° Southeast 527 606 35,000  Level FlightAware ADS-B
Thu 11:55:15 PM 18.8820 -84.8210 138° Southeast 527 606 35,000  Level FlightAware ADS-B
Thu 11:55:54 PM 18.8210 -84.7640 139° Southeast 527 606 35,000  Level FlightAware ADS-B
Thu 11:56:31 PM 18.7250 -84.6800 140° Southeast 527 606 35,000  Level FlightAware ADS-B
Thu 11:57:20 PM 18.6500 -84.6080 138° Southeast 527 606 35,000  Level FlightAware ADS-B
Thu 11:57:57 PM 18.5930 -84.5540 138° Southeast 527 606 35,000  Level FlightAware ADS-B
Thu 11:58:44 PM 18.5200 -84.4850 138° Southeast 527 606 35,000  Level FlightAware ADS-B
Thu 11:59:20 PM 18.4650 -84.4320 138° Southeast 527 606 35,000  Level FlightAware ADS-B
Fri 12:00:08 AM 18.3910 -84.3620 138° Southeast 527 606 35,000  Level FlightAware ADS-B
Fri 12:02:00 AM 18.2060 -84.1809 137° Southeast  Level Estimated
Fri 12:02:11 AM 18.2020 -84.1830 137° Southeast 527 606 35,000  Level FlightAware ADS-B
Fri 12:02:59 AM 18.1280 -84.1130 138° Southeast 527 606 35,000  Level FlightAware ADS-B
Fri 12:03:33 AM 18.0750 -84.0630 138° Southeast 527 606 35,000  Level FlightAware ADS-B
Fri 12:04:21 AM 18.0010 -83.9930 138° Southeast 527 606 35,000  Level FlightAware ADS-B
Fri 12:04:57 AM 17.9460 -83.9410 138° Southeast 527 606 35,000  Level FlightAware ADS-B
Fri 12:05:46 AM 17.8700 -83.8690 138° Southeast 527 606 35,000  Level FlightAware ADS-B
Fri 12:06:23 AM 17.8130 -83.8150 138° Southeast 527 606 35,000  Level FlightAware ADS-B
Fri 12:09:00 AM 17.5529 -83.5628 137° Southeast  Level Estimated
Fri 12:10:00 AM 17.4534 -83.4667 137° Southeast  Level Estimated
Fri 12:11:00 AM 17.3539 -83.3706 137° Southeast  Level Estimated
Fri 12:12:00 AM 17.2543 -83.2746 137° Southeast  Level Estimated
Fri 12:13:00 AM 17.1547 -83.1787 137° Southeast  Level Estimated
Fri 12:14:00 AM 17.0550 -83.0830 137° Southeast  Level Estimated
Fri 12:15:00 AM 16.9553 -82.9873 137° Southeast  Level Estimated
Fri 12:16:00 AM 16.8556 -82.8918 137° Southeast  Level Estimated
Fri 12:17:00 AM 16.7558 -82.7963 138° Southeast  Level Estimated
Fri 12:18:00 AM 16.6560 -82.7010 138° Southeast  Level Estimated
Fri 12:19:00 AM 16.5561 -82.6057 138° Southeast  Level Estimated
Fri 12:20:00 AM 16.4561 -82.5105 138° Southeast  Level Estimated
Fri 12:21:00 AM 16.3562 -82.4155 138° Southeast  Level Estimated
Fri 12:22:00 AM 16.2562 -82.3205 138° Southeast  Level Estimated
Fri 12:23:00 AM 16.1561 -82.2256 138° Southeast  Level Estimated
Fri 12:24:00 AM 16.0560 -82.1309 138° Southeast  Level Estimated
Fri 12:25:00 AM 15.9559 -82.0362 138° Southeast  Level Estimated
Fri 12:26:00 AM 15.8557 -81.9416 138° Southeast  Level Estimated
Fri 12:27:00 AM 15.7555 -81.8471 138° Southeast  Level Estimated
Fri 12:28:00 AM 15.6552 -81.7527 138° Southeast  Level Estimated
Fri 12:29:00 AM 15.5549 -81.6584 138° Southeast  Level Estimated
Fri 12:30:00 AM 15.4546 -81.5642 138° Southeast  Level Estimated
Fri 12:31:00 AM 15.3542 -81.4701 138° Southeast  Level Estimated
Fri 12:32:00 AM 15.2538 -81.3761 138° Southeast  Level Estimated
Fri 12:33:00 AM 15.1533 -81.2821 138° Southeast  Level Estimated
Fri 12:34:00 AM 15.0528 -81.1883 138° Southeast  Level Estimated
Fri 12:35:00 AM 14.9523 -81.0945 138° Southeast  Level Estimated
Fri 12:36:00 AM 14.8517 -81.0008 138° Southeast  Level Estimated
Fri 12:37:00 AM 14.7511 -80.9073 138° Southeast  Level Estimated
Fri 12:38:00 AM 14.6504 -80.8138 138° Southeast  Level Estimated
Fri 12:39:00 AM 14.5497 -80.7204 138° Southeast  Level Estimated
Fri 12:40:00 AM 14.4490 -80.6270 138° Southeast  Level Estimated
Fri 12:41:00 AM 14.3482 -80.5338 138° Southeast  Level Estimated
Fri 12:42:00 AM 14.2474 -80.4406 138° Southeast  Level Estimated
Fri 12:43:00 AM 14.1466 -80.3475 138° Southeast  Level Estimated
Fri 12:44:00 AM 14.0457 -80.2545 138° Southeast  Level Estimated
Fri 12:45:00 AM 13.9448 -80.1616 138° Southeast  Level Estimated
Fri 12:46:00 AM 13.8439 -80.0688 138° Southeast  Level Estimated
Fri 12:47:00 AM 13.7429 -79.9761 138° Southeast  Level Estimated
Fri 12:48:00 AM 13.6419 -79.8834 138° Southeast  Level Estimated
Fri 12:49:00 AM 13.5408 -79.7908 138° Southeast  Level Estimated
Fri 12:50:00 AM 13.4398 -79.6983 138° Southeast  Level Estimated
Fri 12:51:00 AM 13.3386 -79.6059 138° Southeast  Level Estimated
Fri 12:52:00 AM 13.2375 -79.5135 138° Southeast  Level Estimated
Fri 12:53:00 AM 13.1363 -79.4212 138° Southeast  Level Estimated
Fri 12:54:00 AM 13.0351 -79.3290 138° Southeast  Level Estimated
Fri 12:55:00 AM 12.9339 -79.2369 138° Southeast  Level Estimated
Fri 12:56:00 AM 12.8326 -79.1448 138° Southeast  Level Estimated
Fri 12:57:00 AM 12.7313 -79.0529 138° Southeast  Level Estimated
Fri 12:58:00 AM 12.6299 -78.9610 138° Southeast  Level Estimated
Fri 12:59:00 AM 12.5286 -78.8691 139° Southeast  Level Estimated
Fri 01:00:00 AM 12.4272 -78.7774 139° Southeast  Level Estimated
Fri 01:01:00 AM 12.3257 -78.6857 139° Southeast  Level Estimated
Fri 01:02:00 AM 12.2242 -78.5940 139° Southeast  Level Estimated
Fri 01:03:00 AM 12.1228 -78.5025 139° Southeast  Level Estimated
Fri 01:04:00 AM 12.0212 -78.4110 139° Southeast  Level Estimated
Fri 01:05:00 AM 11.9197 -78.3196 139° Southeast  Level Estimated
Fri 01:06:00 AM 11.8181 -78.2283 139° Southeast  Level Estimated
Fri 01:07:00 AM 11.7165 -78.1370 139° Southeast  Level Estimated
Fri 01:08:00 AM 11.6148 -78.0458 139° Southeast  Level Estimated
Fri 01:09:00 AM 11.5132 -77.9547 139° Southeast  Level Estimated
Fri 01:10:00 AM 11.4115 -77.8636 139° Southeast  Level Estimated
Fri 01:11:00 AM 11.3097 -77.7726 139° Southeast  Level Estimated
Fri 01:12:00 AM 11.2080 -77.6816 139° Southeast  Level Estimated
Fri 01:13:00 AM 11.1062 -77.5908 139° Southeast  Level Estimated
Fri 01:14:00 AM 11.0044 -77.4999 139° Southeast  Level Estimated
Fri 01:15:00 AM 10.9025 -77.4092 139° Southeast  Level Estimated
Fri 01:16:00 AM 10.8007 -77.3185 139° Southeast  Level Estimated
Fri 01:17:00 AM 10.6988 -77.2279 139° Southeast  Level Estimated
Fri 01:18:00 AM 10.5969 -77.1373 139° Southeast  Level Estimated
Fri 01:19:00 AM 10.4945 -77.0464 139° Southeast  Level Estimated
Fri 01:20:00 AM 10.3922 -76.9557 139° Southeast  Level Estimated
Fri 01:21:00 AM 10.2898 -76.8650 139° Southeast  Level Estimated
Fri 01:22:00 AM 10.1875 -76.7743 139° Southeast  Level Estimated
Fri 01:23:00 AM 10.0850 -76.6837 139° Southeast  Level Estimated
Fri 01:23:30 AM 9.0880 -75.8610 139° Southeast 514 592 35,000  Level FlightAware ADS-B
Fri 01:24:00 AM 9.9826 -76.5931 139° Southeast  Level Estimated
Fri 01:24:15 AM 9.0090 -75.7770 134° Southeast 509 586 35,000  Level FlightAware ADS-B
Fri 01:25:00 AM 8.9350 -75.7000 134° Southeast 508 585 35,000  Level FlightAware ADS-B
Fri 01:25:54 AM 8.8550 -75.6150 134° Southeast 507 583 35,000  Level FlightAware ADS-B
Fri 01:26:37 AM 8.7810 -75.5370 134° Southeast 506 582 35,000  Level FlightAware ADS-B
Fri 01:27:20 AM 8.7130 -75.4660 134° Southeast 507 583 35,000  Level FlightAware ADS-B
Fri 01:28:02 AM 8.6510 -75.4010 134° Southeast 507 583 35,000  Level FlightAware ADS-B
Fri 01:28:46 AM 8.5810 -75.3260 133° Southeast 506 582 35,000  Level FlightAware ADS-B
Fri 01:29:54 AM 8.4610 -75.2000 134° Southeast 506 582 35,000  Level FlightAware ADS-B
Fri 01:31:06 AM 8.3690 -75.1030 134° Southeast 506 582 35,000  Level FlightAware ADS-B
Fri 01:31:44 AM 8.3160 -75.0480 134° Southeast 506 582 35,000  Level FlightAware ADS-B
Fri 01:32:43 AM 8.2350 -74.9630 134° Southeast 506 582 35,000  Level FlightAware ADS-B
Fri 01:33:20 AM 8.1840 -74.9100 134° Southeast 506 582 35,000  Level FlightAware ADS-B
Fri 01:33:57 AM 8.1330 -74.8560 134° Southeast 506 582 35,000  Level FlightAware ADS-B
Fri 01:34:43 AM 8.0690 -74.7900 134° Southeast 506 582 35,000  Level FlightAware ADS-B
Fri 01:35:29 AM 8.0050 -74.7230 134° Southeast 506 582 35,000  Level FlightAware ADS-B
Fri 01:36:04 AM 7.9570 -74.6730 134° Southeast 506 582 35,000  Level FlightAware ADS-B
Fri 01:36:52 AM 7.8910 -74.6030 134° Southeast 506 582 35,000  Level FlightAware ADS-B
Fri 01:37:29 AM 7.8390 -74.5500 135° Southeast 506 582 35,000  Level FlightAware ADS-B
Fri 01:38:18 AM 7.7720 -74.4790 134° Southeast 506 582 35,000  Level FlightAware ADS-B
Fri 01:38:54 AM 7.7220 -74.4270 134° Southeast 506 582 35,000  Level FlightAware ADS-B
Fri 01:39:42 AM 7.6560 -74.3580 134° Southeast 506 582 35,000  Level FlightAware ADS-B
Fri 01:40:24 AM 7.5980 -74.2970 134° Southeast 506 582 35,000  Level FlightAware ADS-B
Fri 01:42:00 AM 7.4328 -74.1547 139° Southeast  Level Estimated
Fri 01:43:00 AM 7.3295 -74.0658 140° Southeast  Level Estimated
Fri 01:44:00 AM 7.2261 -73.9769 140° Southeast  Level Estimated
Fri 01:45:00 AM 7.1228 -73.8881 140° Southeast  Level Estimated
Fri 01:45:28 AM 6.8580 -73.7130 140° Southeast 502 578 35,000  Level FlightAware ADS-B
Fri 01:46:22 AM 6.7660 -73.6630 152° Southeast 499 574 35,000  Level FlightAware ADS-B
Fri 01:47:00 AM 6.6680 -73.6100 152° Southeast 498 573 35,000  Level FlightAware ADS-B
Fri 01:47:40 AM 6.5920 -73.5690 152° Southeast 494 568 35,000  Level FlightAware ADS-B
Fri 01:48:22 AM 6.5050 -73.5220 152° Southeast 492 566 35,000  Level FlightAware ADS-B
Fri 01:49:08 AM 6.4100 -73.4710 152° Southeast 490 564 35,000  Level FlightAware ADS-B
Fri 01:49:50 AM 6.3270 -73.4260 152° Southeast 488 562 35,000  Level FlightAware ADS-B
Fri 01:50:32 AM 6.2430 -73.3810 152° Southeast 485 558 35,000  Level FlightAware ADS-B
Fri 01:51:14 AM 6.1610 -73.3360 151° Southeast 485 558 35,000  Level FlightAware ADS-B
Fri 01:52:12 AM 6.0610 -73.2810 151° Southeast 485 558 35,000  Level FlightAware ADS-B
Fri 01:52:48 AM 6.0000 -73.2480 152° Southeast 485 558 35,000  Level FlightAware ADS-B
Fri 01:53:36 AM 5.9200 -73.2030 151° Southeast 485 558 35,000  Level FlightAware ADS-B
Fri 01:54:12 AM 5.8600 -73.1700 151° Southeast 485 558 35,000  Level FlightAware ADS-B
Fri 01:55:00 AM 5.7800 -73.1250 151° Southeast 485 558 35,000  Level FlightAware ADS-B
Fri 01:55:40 AM 5.7140 -73.0880 151° Southeast 485 558 35,000  Level FlightAware ADS-B
Fri 01:56:20 AM 5.5560 -73.0100 154° Southeast 485 558 35,000  Level FlightAware ADS-B
Fri 01:57:04 AM 5.4680 -72.9630 152° Southeast 486 559 35,000  Level FlightAware ADS-B
Fri 01:57:46 AM 5.3850 -72.9190 152° Southeast 486 559 35,000  Level FlightAware ADS-B
Fri 01:58:27 AM 5.3050 -72.8760 152° Southeast 485 558 35,000  Level FlightAware ADS-B
Fri 01:59:10 AM 5.2180 -72.8290 152° Southeast 486 559 35,000  Level FlightAware ADS-B
Fri 01:59:50 AM 5.1380 -72.7860 152° Southeast 487 560 35,000  Level FlightAware ADS-B
Fri 02:00:35 AM 5.0590 -72.7420 151° Southeast 487 560 35,000  Level FlightAware ADS-B
Fri 02:01:11 AM 4.9990 -72.7090 151° Southeast 487 560 35,000  Level FlightAware ADS-B
Fri 02:01:59 AM 4.9180 -72.6640 151° Southeast 487 560 35,000  Level FlightAware ADS-B
Fri 02:02:36 AM 4.8560 -72.6300 151° Southeast 487 560 35,000  Level FlightAware ADS-B
Fri 02:03:14 AM 4.7930 -72.5940 150° Southeast 487 560 35,000  Level FlightAware ADS-B
Fri 02:04:02 AM 4.7120 -72.5500 152° Southeast 487 560 35,000  Level FlightAware ADS-B
Fri 02:04:39 AM 4.6500 -72.5150 151° Southeast 487 560 35,000  Level FlightAware ADS-B
Fri 02:05:28 AM 4.5680 -72.4690 151° Southeast 487 560 35,000  Level FlightAware ADS-B
Fri 02:06:18 AM 4.4840 -72.4230 151° Southeast 487 560 35,000  Level FlightAware ADS-B
Fri 02:06:54 AM 4.4240 -72.3890 151° Southeast 487 560 35,000  Level FlightAware ADS-B
Fri 02:07:42 AM 4.3440 -72.3450 151° Southeast 487 560 35,000  Level FlightAware ADS-B
Fri 02:08:19 AM 4.2820 -72.3100 151° Southeast 487 560 35,000  Level FlightAware ADS-B
Fri 02:09:07 AM 4.2010 -72.2650 151° Southeast 487 560 35,000  Level FlightAware ADS-B
Fri 02:09:43 AM 4.1410 -72.2320 151° Southeast 487 560 35,000 Level FlightAware ADS-B
Fri 02:12:00 AM 3.9083 -72.0282 139° Southeast  Level Estimated
Fri 02:13:00 AM 3.8064 -71.9390 139° Southeast  Level Estimated
Fri 02:14:00 AM 3.7045 -71.8498 139° Southeast  Level Estimated
Fri 02:15:00 AM 3.6026 -71.7606 139° Southeast  Level Estimated
Fri 02:16:00 AM 3.5006 -71.6714 139° Southeast  Level Estimated
Fri 02:17:00 AM 3.3987 -71.5823 139° Southeast  Level Estimated
Fri 02:18:00 AM 3.2967 -71.4932 139° Southeast  Level Estimated
Fri 02:19:00 AM 3.1948 -71.4041 139° Southeast  Level Estimated
Fri 02:20:00 AM 3.0928 -71.3150 139° Southeast  Level Estimated
Fri 02:21:00 AM 2.9908 -71.2259 139° Southeast  Level Estimated
Fri 02:22:00 AM 2.8888 -71.1369 139° Southeast  Level Estimated
Fri 02:23:00 AM 2.7868 -71.0479 139° Southeast  Level Estimated
Fri 02:24:00 AM 2.6848 -70.9588 139° Southeast  Level Estimated
Fri 02:25:00 AM 2.5828 -70.8698 139° Southeast  Level Estimated
Fri 02:26:00 AM 2.4808 -70.7808 139° Southeast  Level Estimated
Fri 02:27:00 AM 2.3788 -70.6919 139° Southeast  Level Estimated
Fri 02:28:00 AM 2.2768 -70.6029 139° Southeast  Level Estimated
Fri 02:29:00 AM 2.1748 -70.5140 139° Southeast  Level Estimated
Fri 02:30:00 AM 2.0727 -70.4250 139° Southeast  Level Estimated
Fri 02:31:00 AM 1.9707 -70.3361 139° Southeast  Level Estimated
Fri 02:32:00 AM 1.8686 -70.2472 139° Southeast  Level Estimated
Fri 02:33:00 AM 1.7666 -70.1583 139° Southeast  Level Estimated
Fri 02:34:00 AM 1.6645 -70.0694 139° Southeast  Level Estimated
Fri 02:35:00 AM 1.5625 -69.9805 139° Southeast  Level Estimated
Fri 02:36:00 AM 1.4604 -69.8916 139° Southeast  Level Estimated
Fri 02:37:00 AM 1.3584 -69.8027 139° Southeast  Level Estimated
Fri 02:38:00 AM 1.2563 -69.7139 139° Southeast  Level Estimated
Fri 02:39:00 AM 1.1542 -69.6250 139° Southeast  Level Estimated
Fri 02:40:00 AM 1.0522 -69.5362 139° Southeast  Level Estimated
Fri 02:41:00 AM 0.9501 -69.4473 139° Southeast  Level Estimated
Fri 02:42:00 AM 0.8480 -69.3585 139° Southeast  Level Estimated
Fri 02:43:00 AM 0.7459 -69.2697 139° Southeast  Level Estimated
Fri 02:44:00 AM 0.6438 -69.1808 139° Southeast  Level Estimated
Fri 02:45:00 AM 0.5418 -69.0920 139° Southeast  Level Estimated
Fri 02:46:00 AM 0.4397 -69.0032 139° Southeast  Level Estimated
Fri 02:47:00 AM 0.3376 -68.9144 139° Southeast  Level Estimated
Fri 02:48:00 AM 0.2355 -68.8256 139° Southeast  Level Estimated
Fri 02:49:00 AM 0.1334 -68.7367 139° Southeast  Level Estimated
Fri 02:50:00 AM 0.0313 -68.6479 139° Southeast  Level Estimated
Fri 02:51:00 AM -0.0708 -68.5591 139° Southeast  Level Estimated
Fri 02:52:00 AM -0.1729 -68.4703 139° Southeast  Level Estimated
Fri 02:53:00 AM -0.2750 -68.3815 139° Southeast  Level Estimated
Fri 02:54:00 AM -0.3771 -68.2927 139° Southeast  Level Estimated
Fri 02:55:00 AM -0.4791 -68.2039 139° Southeast  Level Estimated
Fri 02:56:00 AM -0.5812 -68.1150 139° Southeast  Level Estimated
Fri 02:57:00 AM -0.6833 -68.0262 139° Southeast  Level Estimated
Fri 02:58:00 AM -0.7854 -67.9374 139° Southeast  Level Estimated
Fri 02:59:00 AM -0.8875 -67.8485 139° Southeast  Level Estimated
Fri 03:00:00 AM -0.9895 -67.7597 139° Southeast  Level Estimated
Fri 03:01:00 AM -1.0916 -67.6709 139° Southeast  Level Estimated
Fri 03:02:00 AM -1.1937 -67.5820 139° Southeast  Level Estimated
Fri 03:03:00 AM -1.2958 -67.4932 139° Southeast  Level Estimated
Fri 03:04:00 AM -1.3978 -67.4043 139° Southeast  Level Estimated
Fri 03:05:00 AM -1.4999 -67.3154 139° Southeast  Level Estimated
Fri 03:06:00 AM -1.6020 -67.2265 139° Southeast  Level Estimated
Fri 03:07:00 AM -1.7040 -67.1377 139° Southeast  Level Estimated
Fri 03:08:00 AM -1.8061 -67.0488 139° Southeast  Level Estimated
Fri 03:09:00 AM -1.9081 -66.9598 139° Southeast  Level Estimated
Fri 03:10:00 AM -2.0102 -66.8709 139° Southeast  Level Estimated
Fri 03:11:00 AM -2.1122 -66.7820 139° Southeast  Level Estimated
Fri 03:12:00 AM -2.2142 -66.6931 139° Southeast  Level Estimated
Fri 03:13:00 AM -2.3163 -66.6041 139° Southeast  Level Estimated
Fri 03:14:00 AM -2.4183 -66.5151 139° Southeast  Level Estimated
Fri 03:15:00 AM -2.5203 -66.4262 139° Southeast  Level Estimated
Fri 03:16:00 AM -2.6223 -66.3372 139° Southeast  Level Estimated
Fri 03:17:00 AM -2.7243 -66.2482 139° Southeast  Level Estimated
Fri 03:18:00 AM -2.8263 -66.1591 139° Southeast  Level Estimated
Fri 03:19:00 AM -2.9283 -66.0701 139° Southeast  Level Estimated
Fri 03:20:00 AM -3.0303 -65.9810 139° Southeast  Level Estimated
Fri 03:21:00 AM -3.1323 -65.8920 139° Southeast  Level Estimated
Fri 03:22:00 AM -3.2342 -65.8029 139° Southeast  Level Estimated
Fri 03:23:00 AM -3.3362 -65.7138 139° Southeast  Level Estimated
Fri 03:24:00 AM -3.4378 -65.6250 139° Southeast  Level Estimated
Fri 03:25:00 AM -3.5394 -65.5361 139° Southeast  Level Estimated
Fri 03:26:00 AM -3.6409 -65.4473 139° Southeast  Level Estimated
Fri 03:27:00 AM -3.7425 -65.3585 139° Southeast  Level Estimated
Fri 03:28:00 AM -3.8440 -65.2696 139° Southeast  Level Estimated
Fri 03:29:00 AM -3.9456 -65.1807 139° Southeast  Level Estimated
Fri 03:30:00 AM -4.0471 -65.0917 139° Southeast  Level Estimated
Fri 03:31:00 AM -4.1486 -65.0028 139° Southeast  Level Estimated
Fri 03:32:00 AM -4.2501 -64.9138 139° Southeast  Level Estimated
Fri 03:33:00 AM -4.3516 -64.8248 139° Southeast  Level Estimated
Fri 03:34:00 AM -4.4531 -64.7358 139° Southeast  Level Estimated
Fri 03:35:00 AM -4.5546 -64.6468 139° Southeast  Level Estimated
Fri 03:36:00 AM -4.6561 -64.5577 139° Southeast  Level Estimated
Fri 03:37:00 AM -4.7575 -64.4686 139° Southeast  Level Estimated
Fri 03:38:00 AM -4.8590 -64.3795 139° Southeast  Level Estimated
Fri 03:39:00 AM -4.9604 -64.2903 139° Southeast  Level Estimated
Fri 03:40:00 AM -5.0618 -64.2012 139° Southeast  Level Estimated
Fri 03:41:00 AM -5.1632 -64.1120 139° Southeast  Level Estimated
Fri 03:42:00 AM -5.2646 -64.0227 139° Southeast  Level Estimated
Fri 03:43:00 AM -5.3660 -63.9335 139° Southeast  Level Estimated
Fri 03:44:00 AM -5.4674 -63.8442 139° Southeast  Level Estimated
Fri 03:45:00 AM -5.5688 -63.7549 139° Southeast  Level Estimated
Fri 03:46:00 AM -5.6701 -63.6655 139° Southeast  Level Estimated
Fri 03:47:00 AM -5.7714 -63.5761 139° Southeast  Level Estimated
Fri 03:48:00 AM -5.8728 -63.4867 139° Southeast  Level Estimated
Fri 03:49:00 AM -5.9741 -63.3973 139° Southeast  Level Estimated
Fri 03:50:00 AM -6.0753 -63.3078 139° Southeast  Level Estimated
Fri 03:51:00 AM -6.1766 -63.2183 139° Southeast  Level Estimated
Fri 03:52:00 AM -6.2779 -63.1287 139° Southeast  Level Estimated
Fri 03:53:00 AM -6.3791 -63.0392 139° Southeast  Level Estimated
Fri 03:54:00 AM -6.4804 -62.9495 139° Southeast  Level Estimated
Fri 03:55:00 AM -6.5816 -62.8599 139° Southeast  Level Estimated
Fri 03:56:00 AM -6.6828 -62.7702 139° Southeast  Level Estimated
Fri 03:57:00 AM -6.7839 -62.6805 139° Southeast  Level Estimated
Fri 03:58:00 AM -6.8851 -62.5907 139° Southeast  Level Estimated
Fri 03:59:00 AM -6.9862 -62.5009 139° Southeast  Level Estimated
Fri 04:00:00 AM -7.0874 -62.4111 139° Southeast  Level Estimated
Fri 04:01:00 AM -7.1885 -62.3212 139° Southeast  Level Estimated
Fri 04:02:00 AM -7.2896 -62.2313 139° Southeast  Level Estimated
Fri 04:03:00 AM -7.3907 -62.1413 139° Southeast  Level Estimated
Fri 04:04:00 AM -7.4917 -62.0513 139° Southeast  Level Estimated
Fri 04:05:00 AM -7.5928 -61.9613 139° Southeast  Level Estimated
Fri 04:06:00 AM -7.6938 -61.8712 139° Southeast  Level Estimated
Fri 04:07:00 AM -7.7948 -61.7811 139° Southeast  Level Estimated
Fri 04:08:00 AM -7.8958 -61.6909 139° Southeast  Level Estimated
Fri 04:09:00 AM -7.9967 -61.6007 138° Southeast  Level Estimated
Fri 04:10:00 AM -8.0977 -61.5104 138° Southeast  Level Estimated
Fri 04:11:00 AM -8.1986 -61.4201 138° Southeast  Level Estimated
Fri 04:12:00 AM -8.2995 -61.3297 138° Southeast  Level Estimated
Fri 04:13:00 AM -8.4004 -61.2393 138° Southeast  Level Estimated
Fri 04:14:00 AM -8.5013 -61.1489 138° Southeast  Level Estimated
Fri 04:15:00 AM -8.6021 -61.0584 138° Southeast  Level Estimated
Fri 04:16:00 AM -8.7030 -60.9679 138° Southeast  Level Estimated
Fri 04:17:00 AM -8.8038 -60.8773 138° Southeast  Level Estimated
Fri 04:18:00 AM -8.9045 -60.7866 138° Southeast  Level Estimated
Fri 04:19:00 AM -9.0053 -60.6959 138° Southeast  Level Estimated
Fri 04:20:00 AM -9.1060 -60.6052 138° Southeast  Level Estimated
Fri 04:21:00 AM -9.2067 -60.5144 138° Southeast  Level Estimated
Fri 04:22:00 AM -9.3074 -60.4236 138° Southeast  Level Estimated
Fri 04:23:00 AM -9.4081 -60.3327 138° Southeast  Level Estimated
Fri 04:24:00 AM -9.5087 -60.2417 138° Southeast  Level Estimated
Fri 04:25:00 AM -9.6094 -60.1507 138° Southeast  Level Estimated
Fri 04:26:00 AM -9.7100 -60.0597 138° Southeast  Level Estimated
Fri 04:27:00 AM -9.8105 -59.9686 138° Southeast  Level Estimated
Fri 04:28:00 AM -9.9111 -59.8774 138° Southeast  Level Estimated
Fri 04:29:00 AM -10.0116 -59.7862 138° Southeast  Level Estimated
Fri 04:30:00 AM -10.1121 -59.6949 138° Southeast  Level Estimated
Fri 04:31:00 AM -10.2126 -59.6035 138° Southeast  Level Estimated
Fri 04:32:00 AM -10.3130 -59.5121 138° Southeast  Level Estimated
Fri 04:33:00 AM -10.4135 -59.4207 138° Southeast  Level Estimated
Fri 04:34:00 AM -10.5139 -59.3292 138° Southeast  Level Estimated
Fri 04:35:00 AM -10.6142 -59.2376 138° Southeast  Level Estimated
Fri 04:36:00 AM -10.7146 -59.1460 138° Southeast  Level Estimated
Fri 04:37:00 AM -10.8149 -59.0543 138° Southeast  Level Estimated
Fri 04:38:00 AM -10.9152 -58.9626 138° Southeast  Level Estimated
Fri 04:39:00 AM -11.0154 -58.8707 138° Southeast  Level Estimated
Fri 04:40:00 AM -11.1157 -58.7789 138° Southeast  Level Estimated
Fri 04:41:00 AM -11.2159 -58.6869 138° Southeast  Level Estimated
Fri 04:42:00 AM -11.3161 -58.5949 138° Southeast  Level Estimated
Fri 04:43:00 AM -11.4162 -58.5028 138° Southeast  Level Estimated
Fri 04:44:00 AM -11.5163 -58.4107 138° Southeast  Level Estimated
Fri 04:45:00 AM -11.6164 -58.3185 138° Southeast  Level Estimated
Fri 04:46:00 AM -11.7165 -58.2262 138° Southeast  Level Estimated
Fri 04:47:00 AM -11.8165 -58.1339 138° Southeast  Level Estimated
Fri 04:48:00 AM -11.9165 -58.0415 138° Southeast  Level Estimated
Fri 04:49:00 AM -12.0165 -57.9490 138° Southeast  Level Estimated
Fri 04:50:00 AM -12.1164 -57.8565 138° Southeast  Level Estimated
Fri 04:51:00 AM -12.2163 -57.7639 138° Southeast  Level Estimated
Fri 04:52:00 AM -12.3162 -57.6712 138° Southeast  Level Estimated
Fri 04:53:00 AM -12.4161 -57.5784 138° Southeast  Level Estimated
Fri 04:54:00 AM -12.5159 -57.4856 138° Southeast  Level Estimated
Fri 04:55:00 AM -12.6157 -57.3927 138° Southeast  Level Estimated
Fri 04:56:00 AM -12.7154 -57.2998 138° Southeast  Level Estimated
Fri 04:57:00 AM -12.8152 -57.2067 138° Southeast  Level Estimated
Fri 04:58:00 AM -12.9148 -57.1136 138° Southeast  Level Estimated
Fri 04:59:00 AM -13.0145 -57.0205 138° Southeast  Level Estimated
Fri 05:00:00 AM -13.1141 -56.9272 138° Southeast  Level Estimated
Fri 05:01:00 AM -13.2137 -56.8339 138° Southeast  Level Estimated
Fri 05:02:00 AM -13.3133 -56.7405 138° Southeast  Level Estimated
Fri 05:03:00 AM -13.4128 -56.6470 138° Southeast  Level Estimated
Fri 05:04:00 AM -13.5123 -56.5534 138° Southeast  Level Estimated
Fri 05:05:00 AM -13.6117 -56.4598 138° Southeast  Level Estimated
Fri 05:06:00 AM -13.7112 -56.3660 138° Southeast  Level Estimated
Fri 05:07:00 AM -13.8105 -56.2722 137° Southeast  Level Estimated
Fri 05:08:00 AM -13.9099 -56.1784 137° Southeast  Level Estimated
Fri 05:09:00 AM -14.0092 -56.0844 137° Southeast  Level Estimated
Fri 05:10:00 AM -14.1085 -55.9904 137° Southeast  Level Estimated
Fri 05:11:00 AM -14.2077 -55.8962 137° Southeast  Level Estimated
Fri 05:12:00 AM -14.3069 -55.8020 137° Southeast  Level Estimated
Fri 05:13:00 AM -14.4061 -55.7077 137° Southeast  Level Estimated
Fri 05:14:00 AM -14.5052 -55.6134 137° Southeast  Level Estimated
Fri 05:15:00 AM -14.6043 -55.5189 137° Southeast  Level Estimated
Fri 05:16:00 AM -14.7034 -55.4244 137° Southeast  Level Estimated
Fri 05:17:00 AM -14.8024 -55.3297 137° Southeast  Level Estimated
Fri 05:18:00 AM -14.9013 -55.2350 137° Southeast  Level Estimated
Fri 05:19:00 AM -15.0003 -55.1402 137° Southeast  Level Estimated
Fri 05:20:00 AM -15.0992 -55.0453 137° Southeast  Level Estimated
Fri 05:21:00 AM -15.1980 -54.9504 137° Southeast  Level Estimated
Fri 05:22:00 AM -15.2969 -54.8553 137° Southeast  Level Estimated
Fri 05:23:00 AM -15.3956 -54.7601 137° Southeast  Level Estimated
Fri 05:24:00 AM -15.4944 -54.6649 137° Southeast  Level Estimated
Fri 05:25:00 AM -15.5931 -54.5695 137° Southeast  Level Estimated
Fri 05:26:00 AM -15.6917 -54.4741 137° Southeast  Level Estimated
Fri 05:27:00 AM -15.7903 -54.3786 137° Southeast  Level Estimated
Fri 05:28:00 AM -15.8889 -54.2830 137° Southeast  Level Estimated
Fri 05:29:00 AM -15.9874 -54.1872 137° Southeast  Level Estimated
Fri 05:30:00 AM -16.0859 -54.0914 137° Southeast  Level Estimated
Fri 05:31:00 AM -16.1844 -53.9955 137° Southeast  Level Estimated
Fri 05:32:00 AM -16.2828 -53.8996 137° Southeast  Level Estimated
Fri 05:33:00 AM -16.3811 -53.8035 137° Southeast  Level Estimated
Fri 05:34:00 AM -16.4794 -53.7073 137° Southeast  Level Estimated
Fri 05:35:00 AM -16.5777 -53.6110 137° Southeast  Level Estimated
Fri 05:36:00 AM -16.6759 -53.5146 137° Southeast  Level Estimated
Fri 05:37:00 AM -16.7741 -53.4181 137° Southeast  Level Estimated
Fri 05:38:00 AM -16.8722 -53.3215 137° Southeast  Level Estimated
Fri 05:39:00 AM -16.9703 -53.2249 137° Southeast  Level Estimated
Fri 05:40:00 AM -17.0684 -53.1281 137° Southeast  Level Estimated
Fri 05:41:00 AM -17.1664 -53.0312 137° Southeast  Level Estimated
Fri 05:42:00 AM -17.2643 -52.9342 137° Southeast  Level Estimated
Fri 05:43:00 AM -17.3622 -52.8371 137° Southeast  Level Estimated
Fri 05:44:00 AM -17.4601 -52.7399 137° Southeast  Level Estimated
Fri 05:45:00 AM -17.5579 -52.6426 137° Southeast  Level Estimated
Fri 05:46:00 AM -17.6557 -52.5452 136° Southeast  Level Estimated
Fri 05:47:00 AM -17.7534 -52.4477 136° Southeast  Level Estimated
Fri 05:48:00 AM -17.8511 -52.3501 136° Southeast  Level Estimated
Fri 05:49:00 AM -17.9487 -52.2523 136° Southeast  Level Estimated
Fri 05:50:00 AM -18.0463 -52.1545 136° Southeast  Level Estimated
Fri 05:51:00 AM -18.1438 -52.0566 136° Southeast  Level Estimated
Fri 05:52:00 AM -18.2413 -51.9585 136° Southeast  Level Estimated
Fri 05:53:00 AM -18.3387 -51.8604 136° Southeast  Level Estimated
Fri 05:54:00 AM -18.4361 -51.7621 136° Southeast  Level Estimated
Fri 05:55:00 AM -18.5334 -51.6637 136° Southeast  Level Estimated
Fri 05:56:00 AM -18.6306 -51.5652 136° Southeast  Level Estimated
Fri 05:57:00 AM -18.7279 -51.4666 136° Southeast  Level Estimated
Fri 05:57:40 AM -19.0250 -50.6430 136° Southeast 509 586 37,000  Level FlightAware ADS-B
Fri 05:58:00 AM -18.8250 -51.3679 136° Southeast  Level Estimated
Fri 05:58:20 AM -19.0910 -50.5710 134° Southeast 509 586 37,000  Level FlightAware ADS-B
Fri 05:59:02 AM -19.1600 -50.4960 134° Southeast 509 586 37,000  Level FlightAware ADS-B
Fri 05:59:40 AM -19.2230 -50.4270 134° Southeast 509 586 37,000  Level FlightAware ADS-B
Fri 06:01:12 AM -19.3360 -50.3030 134° Southeast 510 587 37,000  Level FlightAware ADS-B
Fri 06:01:52 AM -19.4380 -50.1910 134° Southeast 511 588 37,000  Level FlightAware ADS-B
Fri 06:02:31 AM -19.5030 -50.1200 134° Southeast 511 588 37,000  Level FlightAware ADS-B
Fri 06:03:17 AM -19.5790 -50.0350 134° Southeast 510 587 37,000  Level FlightAware ADS-B
Fri 06:03:59 AM -19.6470 -49.9600 134° Southeast 510 587 37,000  Level FlightAware ADS-B
Fri 06:04:39 AM -19.7110 -49.8910 135° Southeast 510 587 37,000  Level FlightAware ADS-B
Fri 06:05:21 AM -19.7820 -49.8140 134° Southeast 510 587 37,000  Level FlightAware ADS-B
Fri 06:06:05 AM -19.8230 -49.7680 133° Southeast 510 587 37,000  Level FlightAware ADS-B
Fri 06:06:42 AM -19.9160 -49.6670 134° Southeast 511 588 37,000  Level FlightAware ADS-B
Fri 06:07:28 AM -19.9920 -49.5840 134° Southeast 511 588 37,000  Level FlightAware ADS-B
Fri 06:08:09 AM -20.0580 -49.5110 134° Southeast 510 587 37,000  Level FlightAware ADS-B
Fri 06:08:50 AM -20.1240 -49.4390 134° Southeast 510 587 37,000  Level FlightAware ADS-B
Fri 06:09:31 AM -20.1910 -49.3650 134° Southeast 510 587 37,000  Level FlightAware ADS-B
Fri 06:10:31 AM -20.2910 -49.2550 134° Southeast 510 587 37,000  Level FlightAware ADS-B
Fri 06:11:13 AM -20.3570 -49.1810 134° Southeast 511 588 37,000  Level FlightAware ADS-B
Fri 06:12:22 AM -20.4730 -49.0530 134° Southeast 511 588 37,000  Level FlightAware ADS-B
Fri 06:13:03 AM -20.5400 -48.9790 134° Southeast 511 588 37,000  Level FlightAware ADS-B
Fri 06:13:46 AM -20.6120 -48.8990 134° Southeast 511 588 37,000  Level FlightAware ADS-B
Fri 06:14:28 AM -20.6790 -48.8240 134° Southeast 511 588 37,000  Level FlightAware ADS-B
Fri 06:15:10 AM -20.7480 -48.7470 134° Southeast 511 588 37,000  Level FlightAware ADS-B
Fri 06:15:54 AM -20.8210 -48.6650 134° Southeast 510 587 37,000  Level FlightAware ADS-B
Fri 06:16:36 AM -20.8890 -48.5890 134° Southeast 510 587 37,000  Level FlightAware ADS-B
Fri 06:17:18 AM -20.9470 -48.5240 134° Southeast 508 585 37,000  Level FlightAware ADS-B
Fri 06:17:58 AM -21.0310 -48.4500 141° Southeast 504 580 37,000  Level FlightAware ADS-B
Fri 06:18:38 AM -21.1030 -48.3880 141° Southeast 505 581 37,000  Level FlightAware ADS-B
Fri 06:19:19 AM -21.1770 -48.3230 141° Southeast 505 581 37,000  Level FlightAware ADS-B
Fri 06:20:04 AM -21.2590 -48.2520 141° Southeast 504 580 37,000  Level FlightAware ADS-B
Fri 06:20:59 AM -21.3460 -48.1770 141° Southeast 504 580 37,000  Level FlightAware ADS-B
Fri 06:21:43 AM -21.4390 -48.0960 141° Southeast 506 582 37,000  Level FlightAware ADS-B
Fri 06:22:20 AM -21.5070 -48.0370 141° Southeast 506 582 37,000  Level FlightAware ADS-B
Fri 06:23:04 AM -21.5870 -47.9670 141° Southeast 506 582 37,000  Level FlightAware ADS-B
Fri 06:23:48 AM -21.6670 -47.8980 141° Southeast 508 585 37,000 -977 Level FlightAware ADS-B
Fri 06:24:30 AM -21.7430 -47.8310 141° Southeast 507 583 35,600 -2,195 Descending FlightAware ADS-B
Fri 06:25:10 AM -21.8160 -47.7670 141° Southeast 504 580 34,000 -2,133 Descending FlightAware ADS-B
Fri 06:26:00 AM -21.9050 -47.6890 141° Southeast 494 568 32,400 -1,957 Descending FlightAware ADS-B
Fri 06:26:42 AM -21.9810 -47.6230 141° Southeast 486 559 31,000 -1,953 Descending FlightAware ADS-B
Fri 06:27:26 AM -22.0560 -47.5570 141° Southeast 477 549 29,600 -1,884 Descending FlightAware ADS-B
Fri 06:28:08 AM -22.1280 -47.4940 141° Southeast 469 540 28,300 -1,829 Descending FlightAware ADS-B
Fri 06:28:48 AM -22.1940 -47.4360 141° Southeast 460 529 27,100 -1,786 Descending FlightAware ADS-B
Fri 06:29:32 AM -22.2660 -47.3730 141° Southeast 453 521 25,800 -1,786 Descending FlightAware ADS-B
Fri 06:30:12 AM -22.3310 -47.3150 140° Southeast 449 517 24,600 -1,756 Descending FlightAware ADS-B
Fri 06:30:54 AM -22.3980 -47.2560 141° Southeast 442 509 23,400 -1,714 Descending FlightAware ADS-B
Fri 06:31:36 AM -22.4640 -47.1980 141° Southeast 436 502 22,200 -1,744 Descending FlightAware ADS-B
Fri 06:32:20 AM -22.5310 -47.1380 140° Southeast 429 494 20,900 -1,814 Descending FlightAware ADS-B
Fri 06:33:02 AM -22.6010 -47.0890 147° Southeast 418 481 19,600 -1,778 Descending FlightAware ADS-B
Fri 06:33:41 AM -22.6670 -47.0590 157° South 409 471 18,500 -1,778 Descending FlightAware ADS-B
Fri 06:34:23 AM -22.7440 -47.0280 160° South 402 463 17,200 -1,793 Descending FlightAware ADS-B
Fri 06:35:08 AM -22.8200 -46.9960 159° South 393 452 15,900 -1,744 Descending FlightAware ADS-B
Fri 06:35:49 AM -22.8900 -46.9660 158° South 387 445 14,700 -2,021 Descending FlightAware ADS-B
Fri 06:36:43 AM -22.9810 -46.9280 159° South 384 442 12,700 -2,061 Descending FlightAware ADS-B
Fri 06:37:28 AM -23.0510 -46.8990 159° South 334 384 11,300 -1,814 Descending FlightAware ADS-B
Fri 06:38:09 AM -23.1060 -46.8750 158° South 305 351 10,100 -1,478 Descending FlightAware ADS-B
Fri 06:38:37 AM -23.1430 -46.8600 160° South 299 344 9,600 -1,050 Descending FlightAware ADS-B
Fri 06:38:49 AM -23.1590 -46.8530 158° South 299 344 9,400 -1,200 Descending FlightAware ADS-B
Fri 06:39:17 AM -23.1950 -46.8380 159° South 297 342 8,800 -1,286 Descending FlightAware ADS-B
Fri 06:39:45 AM -23.2320 -46.8220 158° South 296 341 8,200 -1,364 Descending FlightAware ADS-B
Fri 06:40:01 AM -23.2520 -46.8140 160° South 290 334 7,800 -900 Descending FlightAware ADS-B
Fri 06:40:25 AM -23.2800 -46.8020 159° South 268 308 7,600 -429 Descending FlightAware ADS-B
Fri 06:40:57 AM -23.3160 -46.7860 158° South 255 293 7,400 -407 Descending FlightAware ADS-B
Fri 06:41:24 AM -23.3450 -46.7740 159° South 256 295 7,200 -471 Descending FlightAware ADS-B
Fri 06:41:48 AM -23.3720 -46.7610 156° South 258 297 7,000 -873 Descending FlightAware ADS-B
Fri 06:42:19 AM -23.4010 -46.7360 142° Southeast 259 298 6,400 -1,102 Descending FlightAware ADS-B
Fri 06:42:37 AM -23.4170 -46.7210 139° Southeast 243 280 6,100 -1,024 Descending FlightAware ADS-B
Fri 06:43:00 AM -23.4350 -46.7040 139° Southeast 225 259 5,700 -840 Descending FlightAware ADS-B
Fri 06:43:27 AM -23.4530 -46.6800 129° Southeast 218 251 5,400 -842 Descending FlightAware ADS-B
Fri 06:43:57 AM -23.4660 -46.6510 116° Southeast 215 247 4,900 -842 Descending FlightAware ADS-B
Fri 06:44:24 AM -23.4740 -46.6240 108° East 205 236 4,600 -453 Descending FlightAware ADS-B
Fri 06:44:50 AM -23.4710 -46.6050 80° East 194 223 4,500 -632 Descending FlightAware ADS-B
Fri 06:45:21 AM -23.4630 -46.5770 73° East 183 211 4,000 -1,000 Descending FlightAware ADS-B
Fri 06:45:50 AM -23.4550 -46.5480 73° East 155 178 3,500 -947 Descending FlightAware ADS-B
Fri 06:46:18 AM -23.4500 -46.5270 75° East 154 177 3,100 -792 Descending FlightAware ADS-B
Fri 06:46:43 AM -23.4450 -46.5090 73° East 149 171 2,800 -764 Descending FlightAware ADS-B
Fri 06:47:13 AM -23.4390 -46.4880 73° East 146 168 2,400 -800 Descending FlightAware ADS-B
Fri 06:47:39 AM -23.4350 -46.4730 74° East 96 110 -5,538 Descending FlightAware ADS-B
Fri 06:49:33 AM -23.4290 -46.4620 59° Northeast 12 14  Level FlightAware ADS-B

Login

Don't have an account? Register now (free) for customized features, flight alerts, and more!